sensor_id;sensor_type;location;lat;lon;timestamp;temperature;humidity
45044;DHT22;30784;48.490;9.688;2022-12-10T00:00:33;3.80;64.10
45044;DHT22;30784;48.490;9.688;2022-12-10T00:02:58;3.80;64.10
45044;DHT22;30784;48.490;9.688;2022-12-10T00:05:24;3.80;64.10
45044;DHT22;30784;48.490;9.688;2022-12-10T00:07:49;3.80;64.20
45044;DHT22;30784;48.490;9.688;2022-12-10T00:10:15;3.80;64.10
45044;DHT22;30784;48.490;9.688;2022-12-10T00:12:41;3.90;64.10
45044;DHT22;30784;48.490;9.688;2022-12-10T00:15:07;3.90;64.00
45044;DHT22;30784;48.490;9.688;2022-12-10T00:17:33;3.90;64.00
45044;DHT22;30784;48.490;9.688;2022-12-10T00:19:58;3.90;64.00
45044;DHT22;30784;48.490;9.688;2022-12-10T00:22:24;3.90;64.10
45044;DHT22;30784;48.490;9.688;2022-12-10T00:24:49;3.90;64.00
45044;DHT22;30784;48.490;9.688;2022-12-10T00:27:15;3.90;64.00
45044;DHT22;30784;48.490;9.688;2022-12-10T00:29:40;3.90;64.00
45044;DHT22;30784;48.490;9.688;2022-12-10T00:32:06;3.90;63.90
45044;DHT22;30784;48.490;9.688;2022-12-10T00:34:32;3.90;63.90
45044;DHT22;30784;48.490;9.688;2022-12-10T00:36:57;3.90;63.90
45044;DHT22;30784;48.490;9.688;2022-12-10T00:39:23;3.90;63.90
45044;DHT22;30784;48.490;9.688;2022-12-10T00:41:48;3.90;64.00
45044;DHT22;30784;48.490;9.688;2022-12-10T00:44:15;3.90;64.00
45044;DHT22;30784;48.490;9.688;2022-12-10T00:46:40;3.90;63.90
45044;DHT22;30784;48.490;9.688;2022-12-10T00:49:06;3.90;63.90
45044;DHT22;30784;48.490;9.688;2022-12-10T00:51:32;3.90;63.90
45044;DHT22;30784;48.490;9.688;2022-12-10T00:53:58;3.90;63.90
45044;DHT22;30784;48.490;9.688;2022-12-10T00:56:26;3.90;63.90
45044;DHT22;30784;48.490;9.688;2022-12-10T00:58:53;3.90;63.90
45044;DHT22;30784;48.490;9.688;2022-12-10T01:01:34;3.90;63.90
45044;DHT22;30784;48.490;9.688;2022-12-10T01:04:02;3.90;63.80
45044;DHT22;30784;48.490;9.688;2022-12-10T01:06:31;3.90;63.80
45044;DHT22;30784;48.490;9.688;2022-12-10T01:09:02;3.90;63.80
45044;DHT22;30784;48.490;9.688;2022-12-10T01:11:31;3.90;63.70
45044;DHT22;30784;48.490;9.688;2022-12-10T01:13:57;3.80;63.70
45044;DHT22;30784;48.490;9.688;2022-12-10T01:16:23;3.80;63.70
45044;DHT22;30784;48.490;9.688;2022-12-10T01:18:49;3.80;63.80
45044;DHT22;30784;48.490;9.688;2022-12-10T01:21:17;3.80;63.70
45044;DHT22;30784;48.490;9.688;2022-12-10T01:23:44;3.70;63.70
45044;DHT22;30784;48.490;9.688;2022-12-10T01:26:19;3.70;63.80
45044;DHT22;30784;48.490;9.688;2022-12-10T01:28:45;3.70;63.90
45044;DHT22;30784;48.490;9.688;2022-12-10T01:31:17;3.70;64.00
45044;DHT22;30784;48.490;9.688;2022-12-10T01:33:43;3.70;64.00
45044;DHT22;30784;48.490;9.688;2022-12-10T01:39:31;3.60;63.90
45044;DHT22;30784;48.490;9.688;2022-12-10T01:41:59;3.60;64.00
45044;DHT22;30784;48.490;9.688;2022-12-10T01:46:55;3.60;64.10
45044;DHT22;30784;48.490;9.688;2022-12-10T01:49:26;3.60;64.10
45044;DHT22;30784;48.490;9.688;2022-12-10T01:51:54;3.70;64.20
45044;DHT22;30784;48.490;9.688;2022-12-10T01:54:30;3.60;64.20
45044;DHT22;30784;48.490;9.688;2022-12-10T01:59:38;3.60;64.10
45044;DHT22;30784;48.490;9.688;2022-12-10T02:15:44;3.70;64.10
45044;DHT22;30784;48.490;9.688;2022-12-10T02:18:19;3.70;64.10
45044;DHT22;30784;48.490;9.688;2022-12-10T02:20:50;3.70;64.10
45044;DHT22;30784;48.490;9.688;2022-12-10T02:26:17;3.70;64.00
45044;DHT22;30784;48.490;9.688;2022-12-10T02:29:11;3.70;64.00
45044;DHT22;30784;48.490;9.688;2022-12-10T02:31:32;3.70;64.00
45044;DHT22;30784;48.490;9.688;2022-12-10T02:34:00;3.70;64.00
45044;DHT22;30784;48.490;9.688;2022-12-10T02:36:30;3.70;64.00
45044;DHT22;30784;48.490;9.688;2022-12-10T02:39:00;3.70;64.00
45044;DHT22;30784;48.490;9.688;2022-12-10T02:41:30;3.70;63.90
45044;DHT22;30784;48.490;9.688;2022-12-10T02:43:59;3.70;63.90
45044;DHT22;30784;48.490;9.688;2022-12-10T02:46:28;3.80;63.90
45044;DHT22;30784;48.490;9.688;2022-12-10T02:48:55;3.80;63.90
45044;DHT22;30784;48.490;9.688;2022-12-10T02:51:22;3.80;63.90
45044;DHT22;30784;48.490;9.688;2022-12-10T02:53:47;3.80;63.90
45044;DHT22;30784;48.490;9.688;2022-12-10T03:02:50;3.80;63.70
45044;DHT22;30784;48.490;9.688;2022-12-10T03:08:52;3.80;63.60
45044;DHT22;30784;48.490;9.688;2022-12-10T03:11:21;3.80;63.70
45044;DHT22;30784;48.490;9.688;2022-12-10T03:14:06;3.80;64.20
45044;DHT22;30784;48.490;9.688;2022-12-10T03:16:48;3.80;63.60
45044;DHT22;30784;48.490;9.688;2022-12-10T03:19:18;3.80;63.50
45044;DHT22;30784;48.490;9.688;2022-12-10T03:21:47;3.80;63.60
45044;DHT22;30784;48.490;9.688;2022-12-10T03:24:16;3.80;63.70
45044;DHT22;30784;48.490;9.688;2022-12-10T03:26:44;3.80;63.70
45044;DHT22;30784;48.490;9.688;2022-12-10T03:29:17;3.80;63.70
45044;DHT22;30784;48.490;9.688;2022-12-10T03:31:45;3.80;63.70
45044;DHT22;30784;48.490;9.688;2022-12-10T03:34:11;3.80;63.60
45044;DHT22;30784;48.490;9.688;2022-12-10T03:36:38;3.80;63.50
45044;DHT22;30784;48.490;9.688;2022-12-10T03:39:05;3.80;63.40
45044;DHT22;30784;48.490;9.688;2022-12-10T03:41:31;3.80;63.40
45044;DHT22;30784;48.490;9.688;2022-12-10T03:43:58;3.80;63.40
45044;DHT22;30784;48.490;9.688;2022-12-10T03:46:29;3.80;63.40
45044;DHT22;30784;48.490;9.688;2022-12-10T03:48:56;3.80;63.40
45044;DHT22;30784;48.490;9.688;2022-12-10T03:51:25;3.80;63.40
45044;DHT22;30784;48.490;9.688;2022-12-10T03:53:51;3.70;63.40
45044;DHT22;30784;48.490;9.688;2022-12-10T03:56:17;3.70;63.30
45044;DHT22;30784;48.490;9.688;2022-12-10T03:58:43;3.70;63.30
45044;DHT22;30784;48.490;9.688;2022-12-10T04:01:09;3.70;63.30
45044;DHT22;30784;48.490;9.688;2022-12-10T04:03:38;3.60;63.20
45044;DHT22;30784;48.490;9.688;2022-12-10T04:06:06;3.60;63.30
45044;DHT22;30784;48.490;9.688;2022-12-10T04:08:31;3.60;63.50
45044;DHT22;30784;48.490;9.688;2022-12-10T04:11:08;3.60;63.30
45044;DHT22;30784;48.490;9.688;2022-12-10T04:13:35;3.60;63.30
45044;DHT22;30784;48.490;9.688;2022-12-10T04:16:23;3.50;63.30
45044;DHT22;30784;48.490;9.688;2022-12-10T04:18:55;3.50;63.40
45044;DHT22;30784;48.490;9.688;2022-12-10T04:21:21;3.50;63.40
45044;DHT22;30784;48.490;9.688;2022-12-10T04:24:09;3.50;63.40
45044;DHT22;30784;48.490;9.688;2022-12-10T04:26:55;3.50;63.40
45044;DHT22;30784;48.490;9.688;2022-12-10T04:29:27;3.50;63.50
45044;DHT22;30784;48.490;9.688;2022-12-10T04:31:54;3.40;63.40
45044;DHT22;30784;48.490;9.688;2022-12-10T04:34:20;3.50;63.50
45044;DHT22;30784;48.490;9.688;2022-12-10T04:36:47;3.40;63.40
45044;DHT22;30784;48.490;9.688;2022-12-10T04:39:13;3.40;63.50
45044;DHT22;30784;48.490;9.688;2022-12-10T04:41:40;3.40;63.50
45044;DHT22;30784;48.490;9.688;2022-12-10T04:44:07;3.40;63.50
45044;DHT22;30784;48.490;9.688;2022-12-10T04:46:32;3.40;63.60
45044;DHT22;30784;48.490;9.688;2022-12-10T04:48:58;3.40;63.60
45044;DHT22;30784;48.490;9.688;2022-12-10T04:51:24;3.40;63.50
45044;DHT22;30784;48.490;9.688;2022-12-10T04:53:50;3.50;63.60
45044;DHT22;30784;48.490;9.688;2022-12-10T04:56:16;3.50;63.60
45044;DHT22;30784;48.490;9.688;2022-12-10T04:58:41;3.50;63.50
45044;DHT22;30784;48.490;9.688;2022-12-10T05:01:09;3.50;63.40
45044;DHT22;30784;48.490;9.688;2022-12-10T05:03:36;3.50;63.40
45044;DHT22;30784;48.490;9.688;2022-12-10T05:06:07;3.50;63.30
45044;DHT22;30784;48.490;9.688;2022-12-10T05:08:34;3.50;63.30
45044;DHT22;30784;48.490;9.688;2022-12-10T05:11:04;3.50;63.20
45044;DHT22;30784;48.490;9.688;2022-12-10T05:13:30;3.60;63.20
45044;DHT22;30784;48.490;9.688;2022-12-10T05:15:55;3.60;63.20
45044;DHT22;30784;48.490;9.688;2022-12-10T05:18:21;3.60;63.20
45044;DHT22;30784;48.490;9.688;2022-12-10T05:20:46;3.60;63.10
45044;DHT22;30784;48.490;9.688;2022-12-10T05:23:12;3.60;63.10
45044;DHT22;30784;48.490;9.688;2022-12-10T05:26:03;3.60;63.10
45044;DHT22;30784;48.490;9.688;2022-12-10T05:28:31;3.60;63.00
45044;DHT22;30784;48.490;9.688;2022-12-10T05:30:57;3.60;63.00
45044;DHT22;30784;48.490;9.688;2022-12-10T05:33:23;3.60;63.00
45044;DHT22;30784;48.490;9.688;2022-12-10T05:36:00;3.60;63.00
45044;DHT22;30784;48.490;9.688;2022-12-10T05:38:27;3.60;62.90
45044;DHT22;30784;48.490;9.688;2022-12-10T05:40:53;3.60;62.90
45044;DHT22;30784;48.490;9.688;2022-12-10T05:43:19;3.60;62.80
45044;DHT22;30784;48.490;9.688;2022-12-10T05:45:45;3.60;62.70
45044;DHT22;30784;48.490;9.688;2022-12-10T05:48:13;3.60;62.70
45044;DHT22;30784;48.490;9.688;2022-12-10T05:50:40;3.60;62.70
45044;DHT22;30784;48.490;9.688;2022-12-10T05:53:06;3.60;62.60
45044;DHT22;30784;48.490;9.688;2022-12-10T05:55:31;3.60;62.60
45044;DHT22;30784;48.490;9.688;2022-12-10T05:57:58;3.60;62.50
45044;DHT22;30784;48.490;9.688;2022-12-10T06:00:24;3.60;62.50
45044;DHT22;30784;48.490;9.688;2022-12-10T06:02:50;3.60;62.50
45044;DHT22;30784;48.490;9.688;2022-12-10T06:05:16;3.60;62.40
45044;DHT22;30784;48.490;9.688;2022-12-10T06:07:43;3.60;62.30
45044;DHT22;30784;48.490;9.688;2022-12-10T06:10:09;3.60;62.30
45044;DHT22;30784;48.490;9.688;2022-12-10T06:12:36;3.60;62.30
45044;DHT22;30784;48.490;9.688;2022-12-10T06:15:02;3.50;62.20
45044;DHT22;30784;48.490;9.688;2022-12-10T06:17:27;3.60;62.20
45044;DHT22;30784;48.490;9.688;2022-12-10T06:19:53;3.50;62.10
45044;DHT22;30784;48.490;9.688;2022-12-10T06:22:18;3.50;62.00
45044;DHT22;30784;48.490;9.688;2022-12-10T06:24:44;3.50;62.00
45044;DHT22;30784;48.490;9.688;2022-12-10T06:27:09;3.50;62.00
45044;DHT22;30784;48.490;9.688;2022-12-10T06:29:35;3.50;61.90
45044;DHT22;30784;48.490;9.688;2022-12-10T06:32:00;3.50;61.90
45044;DHT22;30784;48.490;9.688;2022-12-10T06:34:26;3.50;61.90
45044;DHT22;30784;48.490;9.688;2022-12-10T06:36:51;3.50;61.90
45044;DHT22;30784;48.490;9.688;2022-12-10T06:39:17;3.50;61.90
45044;DHT22;30784;48.490;9.688;2022-12-10T06:41:42;3.50;61.80
45044;DHT22;30784;48.490;9.688;2022-12-10T06:44:10;3.50;61.60
45044;DHT22;30784;48.490;9.688;2022-12-10T06:46:36;3.50;61.70
45044;DHT22;30784;48.490;9.688;2022-12-10T06:49:02;3.50;61.70
45044;DHT22;30784;48.490;9.688;2022-12-10T06:51:28;3.50;61.60
45044;DHT22;30784;48.490;9.688;2022-12-10T06:53:54;3.40;61.60
45044;DHT22;30784;48.490;9.688;2022-12-10T06:56:20;3.50;61.50
45044;DHT22;30784;48.490;9.688;2022-12-10T06:58:45;3.40;61.50
45044;DHT22;30784;48.490;9.688;2022-12-10T07:03:39;3.40;61.40
45044;DHT22;30784;48.490;9.688;2022-12-10T07:06:06;3.40;61.30
45044;DHT22;30784;48.490;9.688;2022-12-10T07:08:32;3.40;61.30
45044;DHT22;30784;48.490;9.688;2022-12-10T07:10:57;3.40;61.30
45044;DHT22;30784;48.490;9.688;2022-12-10T07:13:24;3.40;61.40
45044;DHT22;30784;48.490;9.688;2022-12-10T07:15:49;3.40;61.50
45044;DHT22;30784;48.490;9.688;2022-12-10T07:18:15;3.40;61.40
45044;DHT22;30784;48.490;9.688;2022-12-10T07:20:40;3.40;61.40
45044;DHT22;30784;48.490;9.688;2022-12-10T07:23:06;3.40;61.30
45044;DHT22;30784;48.490;9.688;2022-12-10T07:25:32;3.50;61.30
45044;DHT22;30784;48.490;9.688;2022-12-10T07:27:58;3.40;61.20
45044;DHT22;30784;48.490;9.688;2022-12-10T07:30:24;3.40;61.20
45044;DHT22;30784;48.490;9.688;2022-12-10T07:32:49;3.50;61.20
45044;DHT22;30784;48.490;9.688;2022-12-10T07:35:15;3.40;61.20
45044;DHT22;30784;48.490;9.688;2022-12-10T07:37:40;3.40;61.20
45044;DHT22;30784;48.490;9.688;2022-12-10T07:40:06;3.40;61.20
45044;DHT22;30784;48.490;9.688;2022-12-10T07:42:32;3.40;61.10
45044;DHT22;30784;48.490;9.688;2022-12-10T07:44:57;3.40;61.10
45044;DHT22;30784;48.490;9.688;2022-12-10T07:47:23;3.40;61.10
45044;DHT22;30784;48.490;9.688;2022-12-10T07:49:48;3.50;61.10
45044;DHT22;30784;48.490;9.688;2022-12-10T07:52:14;3.50;61.00
45044;DHT22;30784;48.490;9.688;2022-12-10T07:54:39;3.50;60.80
45044;DHT22;30784;48.490;9.688;2022-12-10T07:57:05;3.50;60.90
45044;DHT22;30784;48.490;9.688;2022-12-10T07:59:30;3.50;60.80
45044;DHT22;30784;48.490;9.688;2022-12-10T08:01:56;3.50;60.90
45044;DHT22;30784;48.490;9.688;2022-12-10T08:04:22;3.50;60.80
45044;DHT22;30784;48.490;9.688;2022-12-10T08:06:48;3.50;60.80
45044;DHT22;30784;48.490;9.688;2022-12-10T08:09:14;3.50;60.80
45044;DHT22;30784;48.490;9.688;2022-12-10T08:11:39;3.50;60.80
45044;DHT22;30784;48.490;9.688;2022-12-10T08:14:05;3.50;60.80
45044;DHT22;30784;48.490;9.688;2022-12-10T08:16:30;3.50;60.70
45044;DHT22;30784;48.490;9.688;2022-12-10T08:18:58;3.50;60.70
45044;DHT22;30784;48.490;9.688;2022-12-10T08:21:29;3.50;60.70
45044;DHT22;30784;48.490;9.688;2022-12-10T08:23:55;3.50;60.70
45044;DHT22;30784;48.490;9.688;2022-12-10T08:26:23;3.50;60.60
45044;DHT22;30784;48.490;9.688;2022-12-10T08:28:50;3.50;60.70
45044;DHT22;30784;48.490;9.688;2022-12-10T08:31:18;3.50;61.30
45044;DHT22;30784;48.490;9.688;2022-12-10T08:33:44;3.50;60.70
45044;DHT22;30784;48.490;9.688;2022-12-10T08:36:12;3.50;60.70
45044;DHT22;30784;48.490;9.688;2022-12-10T08:38:38;3.60;60.80
45044;DHT22;30784;48.490;9.688;2022-12-10T08:41:15;3.60;60.80
45044;DHT22;30784;48.490;9.688;2022-12-10T08:43:41;3.60;60.70
45044;DHT22;30784;48.490;9.688;2022-12-10T08:46:08;3.60;60.70
45044;DHT22;30784;48.490;9.688;2022-12-10T08:48:35;3.60;61.10
45044;DHT22;30784;48.490;9.688;2022-12-10T08:51:02;3.60;60.70
45044;DHT22;30784;48.490;9.688;2022-12-10T08:53:27;3.70;60.70
45044;DHT22;30784;48.490;9.688;2022-12-10T08:55:53;3.70;60.60
45044;DHT22;30784;48.490;9.688;2022-12-10T08:58:19;3.70;60.50
45044;DHT22;30784;48.490;9.688;2022-12-10T09:00:46;3.70;60.50
45044;DHT22;30784;48.490;9.688;2022-12-10T09:03:12;3.70;60.40
45044;DHT22;30784;48.490;9.688;2022-12-10T09:05:38;3.80;60.30
45044;DHT22;30784;48.490;9.688;2022-12-10T09:08:04;3.70;60.10
45044;DHT22;30784;48.490;9.688;2022-12-10T09:10:29;3.80;60.00
45044;DHT22;30784;48.490;9.688;2022-12-10T09:12:55;3.80;60.00
45044;DHT22;30784;48.490;9.688;2022-12-10T09:15:20;3.80;60.00
45044;DHT22;30784;48.490;9.688;2022-12-10T09:17:46;3.80;59.90
45044;DHT22;30784;48.490;9.688;2022-12-10T09:20:12;3.80;59.80
45044;DHT22;30784;48.490;9.688;2022-12-10T09:22:38;3.80;59.80
45044;DHT22;30784;48.490;9.688;2022-12-10T09:25:05;3.80;59.70
45044;DHT22;30784;48.490;9.688;2022-12-10T09:27:31;3.80;59.80
45044;DHT22;30784;48.490;9.688;2022-12-10T09:29:57;3.80;59.80
45044;DHT22;30784;48.490;9.688;2022-12-10T09:32:23;3.80;59.70
45044;DHT22;30784;48.490;9.688;2022-12-10T09:34:52;3.90;59.70
45044;DHT22;30784;48.490;9.688;2022-12-10T09:37:18;3.90;59.70
45044;DHT22;30784;48.490;9.688;2022-12-10T09:39:43;3.90;59.70
45044;DHT22;30784;48.490;9.688;2022-12-10T09:42:26;3.90;59.70
45044;DHT22;30784;48.490;9.688;2022-12-10T09:48:04;3.90;59.70
45044;DHT22;30784;48.490;9.688;2022-12-10T09:51:31;4.00;59.40
45044;DHT22;30784;48.490;9.688;2022-12-10T09:53:38;4.00;59.50
45044;DHT22;30784;48.490;9.688;2022-12-10T09:56:05;4.00;59.40
45044;DHT22;30784;48.490;9.688;2022-12-10T09:58:33;4.00;59.30
45044;DHT22;30784;48.490;9.688;2022-12-10T10:01:03;4.00;59.30
45044;DHT22;30784;48.490;9.688;2022-12-10T10:03:37;4.10;59.20
45044;DHT22;30784;48.490;9.688;2022-12-10T10:06:04;4.10;59.20
45044;DHT22;30784;48.490;9.688;2022-12-10T10:08:34;4.10;59.00
45044;DHT22;30784;48.490;9.688;2022-12-10T10:11:02;4.10;59.10
45044;DHT22;30784;48.490;9.688;2022-12-10T10:16:23;4.10;58.80
45044;DHT22;30784;48.490;9.688;2022-12-10T10:19:01;4.10;58.70
45044;DHT22;30784;48.490;9.688;2022-12-10T10:21:39;4.20;59.00
45044;DHT22;30784;48.490;9.688;2022-12-10T10:24:07;4.20;58.80
45044;DHT22;30784;48.490;9.688;2022-12-10T10:26:35;4.20;58.70
45044;DHT22;30784;48.490;9.688;2022-12-10T10:29:04;4.20;58.50
45044;DHT22;30784;48.490;9.688;2022-12-10T10:31:31;4.20;58.50
45044;DHT22;30784;48.490;9.688;2022-12-10T10:34:03;4.20;58.70
45044;DHT22;30784;48.490;9.688;2022-12-10T10:36:35;4.20;58.40
45044;DHT22;30784;48.490;9.688;2022-12-10T10:39:20;4.30;58.60
45044;DHT22;30784;48.490;9.688;2022-12-10T10:41:52;4.20;58.40
45044;DHT22;30784;48.490;9.688;2022-12-10T10:44:21;4.30;58.40
45044;DHT22;30784;48.490;9.688;2022-12-10T10:46:53;4.30;58.50
45044;DHT22;30784;48.490;9.688;2022-12-10T10:49:28;4.30;58.40
45044;DHT22;30784;48.490;9.688;2022-12-10T10:51:59;4.30;58.60
45044;DHT22;30784;48.490;9.688;2022-12-10T10:54:43;4.30;58.70
45044;DHT22;30784;48.490;9.688;2022-12-10T10:59:42;4.30;58.70
45044;DHT22;30784;48.490;9.688;2022-12-10T11:04:51;4.30;58.70
45044;DHT22;30784;48.490;9.688;2022-12-10T11:07:36;4.30;58.60
45044;DHT22;30784;48.490;9.688;2022-12-10T11:10:18;4.30;58.70
45044;DHT22;30784;48.490;9.688;2022-12-10T11:12:53;4.30;58.70
45044;DHT22;30784;48.490;9.688;2022-12-10T11:17:50;4.30;58.80
45044;DHT22;30784;48.490;9.688;2022-12-10T11:20:23;4.30;58.70
45044;DHT22;30784;48.490;9.688;2022-12-10T11:23:01;4.30;58.50
45044;DHT22;30784;48.490;9.688;2022-12-10T11:25:33;4.30;58.40
45044;DHT22;30784;48.490;9.688;2022-12-10T11:31:15;4.30;58.60
45044;DHT22;30784;48.490;9.688;2022-12-10T11:41:48;4.30;58.00
45044;DHT22;30784;48.490;9.688;2022-12-10T11:50:20;4.20;58.10
45044;DHT22;30784;48.490;9.688;2022-12-10T11:53:16;4.20;58.00
45044;DHT22;30784;48.490;9.688;2022-12-10T11:55:59;4.20;57.90
45044;DHT22;30784;48.490;9.688;2022-12-10T12:04:05;4.20;58.20
45044;DHT22;30784;48.490;9.688;2022-12-10T12:09:49;4.20;58.10
45044;DHT22;30784;48.490;9.688;2022-12-10T12:14:55;4.20;58.20
45044;DHT22;30784;48.490;9.688;2022-12-10T12:17:34;4.10;58.10
45044;DHT22;30784;48.490;9.688;2022-12-10T12:22:43;4.20;58.40
45044;DHT22;30784;48.490;9.688;2022-12-10T12:25:42;4.20;58.40
45044;DHT22;30784;48.490;9.688;2022-12-10T12:28:31;4.10;58.30
45044;DHT22;30784;48.490;9.688;2022-12-10T12:31:08;4.20;58.50
45044;DHT22;30784;48.490;9.688;2022-12-10T12:33:45;4.20;58.50
45044;DHT22;30784;48.490;9.688;2022-12-10T12:36:21;4.20;58.40
45044;DHT22;30784;48.490;9.688;2022-12-10T12:47:30;4.20;58.20
45044;DHT22;30784;48.490;9.688;2022-12-10T12:49:58;4.20;58.10
45044;DHT22;30784;48.490;9.688;2022-12-10T12:55:01;4.30;58.00
45044;DHT22;30784;48.490;9.688;2022-12-10T12:57:32;4.30;58.00
45044;DHT22;30784;48.490;9.688;2022-12-10T13:00:16;4.30;58.60
45044;DHT22;30784;48.490;9.688;2022-12-10T13:05:47;4.30;57.90
45044;DHT22;30784;48.490;9.688;2022-12-10T13:10:58;4.30;57.60
45044;DHT22;30784;48.490;9.688;2022-12-10T13:35:18;4.20;57.30
45044;DHT22;30784;48.490;9.688;2022-12-10T13:40:25;4.20;57.30
45044;DHT22;30784;48.490;9.688;2022-12-10T13:43:27;4.20;57.30
45044;DHT22;30784;48.490;9.688;2022-12-10T13:46:32;4.20;57.60
45044;DHT22;30784;48.490;9.688;2022-12-10T13:49:00;4.20;58.00
45044;DHT22;30784;48.490;9.688;2022-12-10T13:51:52;4.20;57.40
45044;DHT22;30784;48.490;9.688;2022-12-10T13:59:43;4.20;57.40
45044;DHT22;30784;48.490;9.688;2022-12-10T14:07:53;4.10;57.40
45044;DHT22;30784;48.490;9.688;2022-12-10T14:10:24;4.10;57.40
45044;DHT22;30784;48.490;9.688;2022-12-10T14:12:51;4.10;57.40
45044;DHT22;30784;48.490;9.688;2022-12-10T14:15:21;4.00;57.20
45044;DHT22;30784;48.490;9.688;2022-12-10T14:17:51;4.00;57.30
45044;DHT22;30784;48.490;9.688;2022-12-10T14:20:21;4.00;57.40
45044;DHT22;30784;48.490;9.688;2022-12-10T14:22:52;4.00;57.50
45044;DHT22;30784;48.490;9.688;2022-12-10T14:25:21;3.90;57.50
45044;DHT22;30784;48.490;9.688;2022-12-10T14:27:52;3.90;57.40
45044;DHT22;30784;48.490;9.688;2022-12-10T14:30:23;3.90;57.40
45044;DHT22;30784;48.490;9.688;2022-12-10T14:32:51;3.90;57.40
45044;DHT22;30784;48.490;9.688;2022-12-10T14:35:24;3.90;57.40
45044;DHT22;30784;48.490;9.688;2022-12-10T14:37:51;3.80;57.40
45044;DHT22;30784;48.490;9.688;2022-12-10T14:40:31;3.80;57.40
45044;DHT22;30784;48.490;9.688;2022-12-10T14:43:04;3.80;57.40
45044;DHT22;30784;48.490;9.688;2022-12-10T14:45:55;3.80;57.60
45044;DHT22;30784;48.490;9.688;2022-12-10T14:48:22;3.80;57.60
45044;DHT22;30784;48.490;9.688;2022-12-10T14:50:48;3.80;57.80
45044;DHT22;30784;48.490;9.688;2022-12-10T14:53:16;3.70;57.80
45044;DHT22;30784;48.490;9.688;2022-12-10T14:55:43;3.70;57.80
45044;DHT22;30784;48.490;9.688;2022-12-10T14:58:17;3.70;58.00
45044;DHT22;30784;48.490;9.688;2022-12-10T15:00:44;3.70;58.00
45044;DHT22;30784;48.490;9.688;2022-12-10T15:03:11;3.70;58.00
45044;DHT22;30784;48.490;9.688;2022-12-10T15:05:42;3.70;58.10
45044;DHT22;30784;48.490;9.688;2022-12-10T15:08:14;3.60;58.00
45044;DHT22;30784;48.490;9.688;2022-12-10T15:10:43;3.60;58.00
45044;DHT22;30784;48.490;9.688;2022-12-10T15:13:32;3.60;58.00
45044;DHT22;30784;48.490;9.688;2022-12-10T15:15:58;3.60;58.10
45044;DHT22;30784;48.490;9.688;2022-12-10T15:18:36;3.60;58.10
45044;DHT22;30784;48.490;9.688;2022-12-10T15:21:11;3.50;58.10
45044;DHT22;30784;48.490;9.688;2022-12-10T15:23:39;3.50;58.10
45044;DHT22;30784;48.490;9.688;2022-12-10T15:26:24;3.50;58.30
45044;DHT22;30784;48.490;9.688;2022-12-10T15:31:48;3.50;58.20
45044;DHT22;30784;48.490;9.688;2022-12-10T15:34:14;3.50;58.20
45044;DHT22;30784;48.490;9.688;2022-12-10T15:36:42;3.40;58.30
45044;DHT22;30784;48.490;9.688;2022-12-10T15:41:53;3.40;58.30
45044;DHT22;30784;48.490;9.688;2022-12-10T15:47:07;3.40;58.40
45044;DHT22;30784;48.490;9.688;2022-12-10T15:49:34;3.40;58.30
45044;DHT22;30784;48.490;9.688;2022-12-10T15:52:00;3.40;58.40
45044;DHT22;30784;48.490;9.688;2022-12-10T15:54:35;3.40;58.40
45044;DHT22;30784;48.490;9.688;2022-12-10T15:57:21;3.40;58.30
45044;DHT22;30784;48.490;9.688;2022-12-10T15:59:50;3.40;58.30
45044;DHT22;30784;48.490;9.688;2022-12-10T16:05:13;3.40;58.30
45044;DHT22;30784;48.490;9.688;2022-12-10T16:07:39;3.40;58.30
45044;DHT22;30784;48.490;9.688;2022-12-10T16:10:06;3.40;58.30
45044;DHT22;30784;48.490;9.688;2022-12-10T16:12:33;3.40;58.30
45044;DHT22;30784;48.490;9.688;2022-12-10T16:15:00;3.40;58.40
45044;DHT22;30784;48.490;9.688;2022-12-10T16:17:29;3.40;58.40
45044;DHT22;30784;48.490;9.688;2022-12-10T16:20:21;3.40;58.40
45044;DHT22;30784;48.490;9.688;2022-12-10T16:22:45;3.40;58.40
45044;DHT22;30784;48.490;9.688;2022-12-10T16:25:11;3.40;58.40
45044;DHT22;30784;48.490;9.688;2022-12-10T16:27:37;3.40;58.40
45044;DHT22;30784;48.490;9.688;2022-12-10T16:30:21;3.40;58.40
45044;DHT22;30784;48.490;9.688;2022-12-10T16:32:47;3.40;58.40
45044;DHT22;30784;48.490;9.688;2022-12-10T16:35:14;3.40;58.40
45044;DHT22;30784;48.490;9.688;2022-12-10T16:37:44;3.40;58.40
45044;DHT22;30784;48.490;9.688;2022-12-10T16:40:12;3.40;58.30
45044;DHT22;30784;48.490;9.688;2022-12-10T16:42:39;3.40;58.80
45044;DHT22;30784;48.490;9.688;2022-12-10T16:45:16;3.40;58.30
45044;DHT22;30784;48.490;9.688;2022-12-10T16:47:43;3.40;58.30
45044;DHT22;30784;48.490;9.688;2022-12-10T16:50:09;3.40;58.20
45044;DHT22;30784;48.490;9.688;2022-12-10T16:52:36;3.40;58.30
45044;DHT22;30784;48.490;9.688;2022-12-10T16:55:02;3.40;58.30
45044;DHT22;30784;48.490;9.688;2022-12-10T16:57:27;3.40;58.30
45044;DHT22;30784;48.490;9.688;2022-12-10T16:59:53;3.40;58.30
45044;DHT22;30784;48.490;9.688;2022-12-10T17:02:19;3.40;58.30
45044;DHT22;30784;48.490;9.688;2022-12-10T17:04:46;3.40;58.30
45044;DHT22;30784;48.490;9.688;2022-12-10T17:07:12;3.40;58.30
45044;DHT22;30784;48.490;9.688;2022-12-10T17:09:38;3.40;58.40
45044;DHT22;30784;48.490;9.688;2022-12-10T17:12:05;3.40;58.40
45044;DHT22;30784;48.490;9.688;2022-12-10T17:14:39;3.40;58.40
45044;DHT22;30784;48.490;9.688;2022-12-10T17:17:06;3.40;58.60
45044;DHT22;30784;48.490;9.688;2022-12-10T17:19:36;3.30;58.40
45044;DHT22;30784;48.490;9.688;2022-12-10T17:22:03;3.30;58.40
45044;DHT22;30784;48.490;9.688;2022-12-10T17:24:30;3.30;58.40
45044;DHT22;30784;48.490;9.688;2022-12-10T17:27:10;3.30;58.40
45044;DHT22;30784;48.490;9.688;2022-12-10T17:29:38;3.30;58.40
45044;DHT22;30784;48.490;9.688;2022-12-10T17:32:06;3.30;58.40
45044;DHT22;30784;48.490;9.688;2022-12-10T17:34:32;3.30;58.40
45044;DHT22;30784;48.490;9.688;2022-12-10T17:36:57;3.30;58.40
45044;DHT22;30784;48.490;9.688;2022-12-10T17:39:23;3.30;58.40
45044;DHT22;30784;48.490;9.688;2022-12-10T17:41:51;3.20;58.30
45044;DHT22;30784;48.490;9.688;2022-12-10T17:44:17;3.30;58.40
45044;DHT22;30784;48.490;9.688;2022-12-10T17:46:42;3.20;58.30
45044;DHT22;30784;48.490;9.688;2022-12-10T17:49:12;3.20;58.40
45044;DHT22;30784;48.490;9.688;2022-12-10T17:51:38;3.20;58.30
45044;DHT22;30784;48.490;9.688;2022-12-10T17:54:04;3.20;58.40
45044;DHT22;30784;48.490;9.688;2022-12-10T17:56:29;3.20;58.40
45044;DHT22;30784;48.490;9.688;2022-12-10T17:58:56;3.20;58.40
45044;DHT22;30784;48.490;9.688;2022-12-10T18:01:22;3.20;58.50
45044;DHT22;30784;48.490;9.688;2022-12-10T18:03:52;3.20;58.60
45044;DHT22;30784;48.490;9.688;2022-12-10T18:06:21;3.20;58.60
45044;DHT22;30784;48.490;9.688;2022-12-10T18:08:47;3.20;58.60
45044;DHT22;30784;48.490;9.688;2022-12-10T18:11:15;3.20;58.60
45044;DHT22;30784;48.490;9.688;2022-12-10T18:13:41;3.20;58.60
45044;DHT22;30784;48.490;9.688;2022-12-10T18:19:29;3.20;58.40
45044;DHT22;30784;48.490;9.688;2022-12-10T18:21:55;3.20;58.40
45044;DHT22;30784;48.490;9.688;2022-12-10T18:24:21;3.10;58.40
45044;DHT22;30784;48.490;9.688;2022-12-10T18:26:46;3.10;58.40